sensor_id;sensor_type;location;lat;lon;timestamp;temperature;humidity
45383;DHT22;42455;51.660;5.824;2023-07-13T00:04:47;18.2;80.5
45383;DHT22;42455;51.660;5.824;2023-07-13T00:09:53;18.1;80.5
45383;DHT22;42455;51.660;5.824;2023-07-13T00:15:01;18.0;81.0
45383;DHT22;42455;51.660;5.824;2023-07-13T00:20:06;17.9;81.0
45383;DHT22;42455;51.660;5.824;2023-07-13T00:25:11;17.9;81.0
45383;DHT22;42455;51.660;5.824;2023-07-13T00:30:18;17.8;81.5
45383;DHT22;42455;51.660;5.824;2023-07-13T00:35:25;17.8;81.5
45383;DHT22;42455;51.660;5.824;2023-07-13T00:40:30;17.8;81.5
45383;DHT22;42455;51.660;5.824;2023-07-13T00:46:25;17.8;82.0
45383;DHT22;42455;51.660;5.824;2023-07-13T00:50:43;17.7;82.0
45383;DHT22;42455;51.660;5.824;2023-07-13T00:55:50;17.7;82.0
45383;DHT22;42455;51.660;5.824;2023-07-13T01:00:55;17.7;82.0
45383;DHT22;42455;51.660;5.824;2023-07-13T01:06:01;17.6;82.5
45383;DHT22;42455;51.660;5.824;2023-07-13T01:11:07;17.6;83.0
45383;DHT22;42455;51.660;5.824;2023-07-13T01:16:18;17.6;83.0
45383;DHT22;42455;51.660;5.824;2023-07-13T01:21:20;17.6;83.0
45383;DHT22;42455;51.660;5.824;2023-07-13T01:26:26;17.5;83.0
45383;DHT22;42455;51.660;5.824;2023-07-13T01:31:32;17.5;83.0
45383;DHT22;42455;51.660;5.824;2023-07-13T01:36:38;17.5;83.0
45383;DHT22;42455;51.660;5.824;2023-07-13T01:41:45;17.4;83.5
45383;DHT22;42455;51.660;5.824;2023-07-13T01:46:51;17.4;83.5
45383;DHT22;42455;51.660;5.824;2023-07-13T01:51:57;17.4;83.5
45383;DHT22;42455;51.660;5.824;2023-07-13T01:57:04;17.3;84.0
45383;DHT22;42455;51.660;5.824;2023-07-13T02:02:09;17.3;84.0
45383;DHT22;42455;51.660;5.824;2023-07-13T02:07:16;17.2;84.0
45383;DHT22;42455;51.660;5.824;2023-07-13T02:12:22;17.2;84.5
45383;DHT22;42455;51.660;5.824;2023-07-13T02:17:28;17.2;84.5
45383;DHT22;42455;51.660;5.824;2023-07-13T02:22:34;17.1;84.5
45383;DHT22;42455;51.660;5.824;2023-07-13T02:27:41;17.1;85.0
45383;DHT22;42455;51.660;5.824;2023-07-13T02:32:47;17.1;85.0
45383;DHT22;42455;51.660;5.824;2023-07-13T02:37:53;17.1;85.0
45383;DHT22;42455;51.660;5.824;2023-07-13T02:42:59;17.0;85.5
45383;DHT22;42455;51.660;5.824;2023-07-13T02:48:05;17.0;85.5
45383;DHT22;42455;51.660;5.824;2023-07-13T02:53:12;17.0;86.0
45383;DHT22;42455;51.660;5.824;2023-07-13T02:58:18;17.0;86.0
45383;DHT22;42455;51.660;5.824;2023-07-13T03:03:24;16.9;86.0
45383;DHT22;42455;51.660;5.824;2023-07-13T03:08:30;16.9;86.5
45383;DHT22;42455;51.660;5.824;2023-07-13T03:13:37;16.9;86.5
45383;DHT22;42455;51.660;5.824;2023-07-13T03:18:43;16.8;86.5
45383;DHT22;42455;51.660;5.824;2023-07-13T03:23:49;16.8;87.0
45383;DHT22;42455;51.660;5.824;2023-07-13T03:28:55;16.8;87.0
45383;DHT22;42455;51.660;5.824;2023-07-13T03:34:01;16.8;87.0
45383;DHT22;42455;51.660;5.824;2023-07-13T03:39:09;16.8;87.0
45383;DHT22;42455;51.660;5.824;2023-07-13T03:44:15;16.7;87.5
45383;DHT22;42455;51.660;5.824;2023-07-13T03:49:20;16.7;87.5
45383;DHT22;42455;51.660;5.824;2023-07-13T03:54:26;16.7;87.5
45383;DHT22;42455;51.660;5.824;2023-07-13T03:59:32;16.7;88.0
45383;DHT22;42455;51.660;5.824;2023-07-13T04:04:39;16.7;88.0
45383;DHT22;42455;51.660;5.824;2023-07-13T04:09:45;16.7;88.5
45383;DHT22;42455;51.660;5.824;2023-07-13T04:14:51;16.7;88.5
45383;DHT22;42455;51.660;5.824;2023-07-13T04:19:57;16.7;88.5
45383;DHT22;42455;51.660;5.824;2023-07-13T04:25:04;16.7;89.0
45383;DHT22;42455;51.660;5.824;2023-07-13T04:30:09;16.7;89.0
45383;DHT22;42455;51.660;5.824;2023-07-13T04:35:16;16.7;89.5
45383;DHT22;42455;51.660;5.824;2023-07-13T04:40:22;16.8;89.5
45383;DHT22;42455;51.660;5.824;2023-07-13T04:45:28;16.8;89.5
45383;DHT22;42455;51.660;5.824;2023-07-13T04:50:36;16.9;90.0
45383;DHT22;42455;51.660;5.824;2023-07-13T04:55:41;16.9;90.0
45383;DHT22;42455;51.660;5.824;2023-07-13T05:00:46;17.0;90.0
45383;DHT22;42455;51.660;5.824;2023-07-13T05:05:55;17.1;90.5
45383;DHT22;42455;51.660;5.824;2023-07-13T05:11:00;17.2;90.5
45383;DHT22;42455;51.660;5.824;2023-07-13T05:16:05;17.3;90.5
45383;DHT22;42455;51.660;5.824;2023-07-13T05:21:11;17.4;90.5
45383;DHT22;42455;51.660;5.824;2023-07-13T05:26:17;17.5;91.0
45383;DHT22;42455;51.660;5.824;2023-07-13T05:31:22;17.6;91.0
45383;DHT22;42455;51.660;5.824;2023-07-13T05:36:28;17.8;91.0
45383;DHT22;42455;51.660;5.824;2023-07-13T05:41:35;17.9;91.0
45383;DHT22;42455;51.660;5.824;2023-07-13T05:46:41;18.0;91.0
45383;DHT22;42455;51.660;5.824;2023-07-13T05:51:47;18.1;91.0
45383;DHT22;42455;51.660;5.824;2023-07-13T05:56:53;18.2;91.0
45383;DHT22;42455;51.660;5.824;2023-07-13T06:01:59;18.3;91.5
45383;DHT22;42455;51.660;5.824;2023-07-13T06:07:06;18.4;91.5
45383;DHT22;42455;51.660;5.824;2023-07-13T06:12:12;18.5;91.0
45383;DHT22;42455;51.660;5.824;2023-07-13T06:17:18;18.6;91.5
45383;DHT22;42455;51.660;5.824;2023-07-13T06:22:24;18.7;91.0
45383;DHT22;42455;51.660;5.824;2023-07-13T06:27:30;18.8;91.0
45383;DHT22;42455;51.660;5.824;2023-07-13T06:32:37;18.9;91.0
45383;DHT22;42455;51.660;5.824;2023-07-13T06:37:43;19.0;91.0
45383;DHT22;42455;51.660;5.824;2023-07-13T06:42:49;19.2;91.0
45383;DHT22;42455;51.660;5.824;2023-07-13T06:47:55;19.3;91.0
45383;DHT22;42455;51.660;5.824;2023-07-13T06:53:01;19.4;90.5
45383;DHT22;42455;51.660;5.824;2023-07-13T06:58:07;19.6;90.5
45383;DHT22;42455;51.660;5.824;2023-07-13T07:03:14;19.7;90.5
45383;DHT22;42455;51.660;5.824;2023-07-13T07:08:20;19.9;90.5
45383;DHT22;42455;51.660;5.824;2023-07-13T07:13:26;19.9;90.0
45383;DHT22;42455;51.660;5.824;2023-07-13T07:18:32;20.0;90.0
45383;DHT22;42455;51.660;5.824;2023-07-13T07:23:39;20.0;89.5
45383;DHT22;42455;51.660;5.824;2023-07-13T07:28:45;20.1;89.5
45383;DHT22;42455;51.660;5.824;2023-07-13T07:33:51;20.1;89.5
45383;DHT22;42455;51.660;5.824;2023-07-13T07:38:57;20.2;89.0
45383;DHT22;42455;51.660;5.824;2023-07-13T07:44:04;20.2;89.0
45383;DHT22;42455;51.660;5.824;2023-07-13T07:49:10;20.2;89.0
45383;DHT22;42455;51.660;5.824;2023-07-13T07:54:16;20.2;89.0
45383;DHT22;42455;51.660;5.824;2023-07-13T07:59:22;20.3;89.0
45383;DHT22;42455;51.660;5.824;2023-07-13T08:04:28;20.4;89.5
45383;DHT22;42455;51.660;5.824;2023-07-13T08:09:35;20.5;89.0
45383;DHT22;42455;51.660;5.824;2023-07-13T08:14:41;20.7;89.0
45383;DHT22;42455;51.660;5.824;2023-07-13T08:19:47;20.8;89.0
45383;DHT22;42455;51.660;5.824;2023-07-13T08:24:53;21.0;88.5
45383;DHT22;42455;51.660;5.824;2023-07-13T08:35:06;21.3;88.0
45383;DHT22;42455;51.660;5.824;2023-07-13T08:40:12;21.5;87.5
45383;DHT22;42455;51.660;5.824;2023-07-13T08:45:25;21.7;87.5
45383;DHT22;42455;51.660;5.824;2023-07-13T08:50:35;22.1;87.0
45383;DHT22;42455;51.660;5.824;2023-07-13T08:55:33;22.4;86.5
45383;DHT22;42455;51.660;5.824;2023-07-13T09:00:56;22.7;85.5
45383;DHT22;42455;51.660;5.824;2023-07-13T09:05:43;22.9;84.0
45383;DHT22;42455;51.660;5.824;2023-07-13T09:11:23;23.0;82.5
45383;DHT22;42455;51.660;5.824;2023-07-13T09:15:55;22.9;81.0
45383;DHT22;42455;51.660;5.824;2023-07-13T09:21:04;22.8;81.0
45383;DHT22;42455;51.660;5.824;2023-07-13T09:26:13;22.9;82.0
45383;DHT22;42455;51.660;5.824;2023-07-13T09:31:19;23.1;81.5
45383;DHT22;42455;51.660;5.824;2023-07-13T09:36:22;23.3;80.5
45383;DHT22;42455;51.660;5.824;2023-07-13T09:41:50;23.5;80.0
45383;DHT22;42455;51.660;5.824;2023-07-13T09:46:32;23.7;80.0
45383;DHT22;42455;51.660;5.824;2023-07-13T09:51:41;24.0;79.5
45383;DHT22;42455;51.660;5.824;2023-07-13T09:56:45;24.2;78.5
45383;DHT22;42455;51.660;5.824;2023-07-13T10:01:51;24.6;78.0
45383;DHT22;42455;51.660;5.824;2023-07-13T10:07:06;24.8;76.5
45383;DHT22;42455;51.660;5.824;2023-07-13T10:12:04;24.9;75.5
45383;DHT22;42455;51.660;5.824;2023-07-13T10:17:12;25.0;75.0
45383;DHT22;42455;51.660;5.824;2023-07-13T10:22:31;25.1;75.0
45383;DHT22;42455;51.660;5.824;2023-07-13T10:27:29;25.2;74.0
45383;DHT22;42455;51.660;5.824;2023-07-13T10:32:28;25.2;74.0
45383;DHT22;42455;51.660;5.824;2023-07-13T10:37:43;25.3;73.5
45383;DHT22;42455;51.660;5.824;2023-07-13T10:42:48;25.3;72.5
45383;DHT22;42455;51.660;5.824;2023-07-13T10:47:48;25.3;72.0
45383;DHT22;42455;51.660;5.824;2023-07-13T10:53:02;25.2;72.0
45383;DHT22;42455;51.660;5.824;2023-07-13T10:58:00;25.3;72.0
45383;DHT22;42455;51.660;5.824;2023-07-13T11:03:13;25.4;71.5
45383;DHT22;42455;51.660;5.824;2023-07-13T11:08:36;25.5;71.0
45383;DHT22;42455;51.660;5.824;2023-07-13T11:13:38;25.5;70.5
45383;DHT22;42455;51.660;5.824;2023-07-13T11:18:24;25.4;69.5
45383;DHT22;42455;51.660;5.824;2023-07-13T11:23:31;25.3;69.0
45383;DHT22;42455;51.660;5.824;2023-07-13T11:28:37;25.0;69.5
45383;DHT22;42455;51.660;5.824;2023-07-13T11:33:56;24.8;69.5
45383;DHT22;42455;51.660;5.824;2023-07-13T11:38:55;24.3;70.0
45383;DHT22;42455;51.660;5.824;2023-07-13T11:44:01;24.0;71.5
45383;DHT22;42455;51.660;5.824;2023-07-13T11:49:01;23.7;72.0
45383;DHT22;42455;51.660;5.824;2023-07-13T11:54:21;23.5;73.5
45383;DHT22;42455;51.660;5.824;2023-07-13T11:59:13;23.3;73.5
45383;DHT22;42455;51.660;5.824;2023-07-13T12:04:25;23.0;74.5
45383;DHT22;42455;51.660;5.824;2023-07-13T12:09:26;22.6;75.5
45383;DHT22;42455;51.660;5.824;2023-07-13T12:14:33;22.1;77.0
45383;DHT22;42455;51.660;5.824;2023-07-13T12:19:38;21.9;79.5
45383;DHT22;42455;51.660;5.824;2023-07-13T12:24:45;21.9;81.5
45383;DHT22;42455;51.660;5.824;2023-07-13T12:29:51;22.1;82.0
45383;DHT22;42455;51.660;5.824;2023-07-13T12:35:13;22.2;82.5
45383;DHT22;42455;51.660;5.824;2023-07-13T12:40:03;22.3;83.0
45383;DHT22;42455;51.660;5.824;2023-07-13T12:45:19;22.4;83.0
45383;DHT22;42455;51.660;5.824;2023-07-13T12:50:17;22.5;84.0
45383;DHT22;42455;51.660;5.824;2023-07-13T12:55:22;22.8;84.5
45383;DHT22;42455;51.660;5.824;2023-07-13T13:00:32;23.0;84.0
45383;DHT22;42455;51.660;5.824;2023-07-13T13:05:34;23.2;83.0
45383;DHT22;42455;51.660;5.824;2023-07-13T13:10:40;23.4;83.0
45383;DHT22;42455;51.660;5.824;2023-07-13T13:15:46;23.8;83.5
45383;DHT22;42455;51.660;5.824;2023-07-13T13:20:52;24.1;82.0
45383;DHT22;42455;51.660;5.824;2023-07-13T13:25:58;24.4;80.0
45383;DHT22;42455;51.660;5.824;2023-07-13T13:31:05;24.5;78.5
45383;DHT22;42455;51.660;5.824;2023-07-13T13:36:12;24.5;77.5
45383;DHT22;42455;51.660;5.824;2023-07-13T13:41:17;24.5;77.0
45383;DHT22;42455;51.660;5.824;2023-07-13T13:46:24;24.5;75.5
45383;DHT22;42455;51.660;5.824;2023-07-13T13:51:30;24.5;74.5
45383;DHT22;42455;51.660;5.824;2023-07-13T13:56:36;24.3;74.0
45383;DHT22;42455;51.660;5.824;2023-07-13T14:01:44;24.2;73.0
45383;DHT22;42455;51.660;5.824;2023-07-13T14:06:48;24.0;73.5
45383;DHT22;42455;51.660;5.824;2023-07-13T14:11:54;23.9;73.5
45383;DHT22;42455;51.660;5.824;2023-07-13T14:17:01;23.8;74.0
45383;DHT22;42455;51.660;5.824;2023-07-13T14:22:07;23.9;74.0
45383;DHT22;42455;51.660;5.824;2023-07-13T14:27:13;23.9;74.0
45383;DHT22;42455;51.660;5.824;2023-07-13T14:32:19;23.9;73.5
45383;DHT22;42455;51.660;5.824;2023-07-13T14:37:25;23.8;72.5
45383;DHT22;42455;51.660;5.824;2023-07-13T14:42:32;23.8;71.5
45383;DHT22;42455;51.660;5.824;2023-07-13T14:47:38;23.7;71.5
45383;DHT22;42455;51.660;5.824;2023-07-13T14:52:46;23.7;71.5
45383;DHT22;42455;51.660;5.824;2023-07-13T14:57:50;23.8;71.5
45383;DHT22;42455;51.660;5.824;2023-07-13T15:02:59;23.9;71.5
45383;DHT22;42455;51.660;5.824;2023-07-13T15:08:03;24.0;71.5
45383;DHT22;42455;51.660;5.824;2023-07-13T15:13:18;24.3;71.0
45383;DHT22;42455;51.660;5.824;2023-07-13T15:18:18;24.5;70.0
45383;DHT22;42455;51.660;5.824;2023-07-13T15:23:22;24.6;69.0
45383;DHT22;42455;51.660;5.824;2023-07-13T15:28:27;24.6;69.0
45383;DHT22;42455;51.660;5.824;2023-07-13T15:33:34;24.6;69.0
45383;DHT22;42455;51.660;5.824;2023-07-13T15:38:40;24.6;69.0
45383;DHT22;42455;51.660;5.824;2023-07-13T15:43:47;24.6;69.0
45383;DHT22;42455;51.660;5.824;2023-07-13T15:48:53;24.6;69.0
45383;DHT22;42455;51.660;5.824;2023-07-13T15:54:00;24.6;68.5
45383;DHT22;42455;51.660;5.824;2023-07-13T15:59:05;24.5;69.0
45383;DHT22;42455;51.660;5.824;2023-07-13T16:04:11;24.5;69.5
45383;DHT22;42455;51.660;5.824;2023-07-13T16:09:22;24.6;70.5
45383;DHT22;42455;51.660;5.824;2023-07-13T16:14:24;24.6;70.5
45383;DHT22;42455;51.660;5.824;2023-07-13T16:19:31;24.6;71.0
45383;DHT22;42455;51.660;5.824;2023-07-13T16:29:42;24.6;71.5
45383;DHT22;42455;51.660;5.824;2023-07-13T16:34:47;24.5;71.5
45383;DHT22;42455;51.660;5.824;2023-07-13T16:39:56;24.5;71.5
45383;DHT22;42455;51.660;5.824;2023-07-13T16:45:00;24.5;71.5
45383;DHT22;42455;51.660;5.824;2023-07-13T16:50:12;24.5;72.0
45383;DHT22;42455;51.660;5.824;2023-07-13T16:55:13;24.4;72.0
45383;DHT22;42455;51.660;5.824;2023-07-13T17:00:24;24.4;72.0
45383;DHT22;42455;51.660;5.824;2023-07-13T17:05:24;24.3;72.5
45383;DHT22;42455;51.660;5.824;2023-07-13T17:10:31;24.3;72.0
45383;DHT22;42455;51.660;5.824;2023-07-13T17:15:37;24.3;72.5
45383;DHT22;42455;51.660;5.824;2023-07-13T17:20:45;24.2;72.5
45383;DHT22;42455;51.660;5.824;2023-07-13T17:25:50;24.2;72.5
45383;DHT22;42455;51.660;5.824;2023-07-13T17:30:57;24.2;73.0
45383;DHT22;42455;51.660;5.824;2023-07-13T17:36:04;24.2;72.5
45383;DHT22;42455;51.660;5.824;2023-07-13T17:41:09;24.2;71.5
45383;DHT22;42455;51.660;5.824;2023-07-13T17:46:16;24.0;72.0
45383;DHT22;42455;51.660;5.824;2023-07-13T17:51:20;23.9;72.0
45383;DHT22;42455;51.660;5.824;2023-07-13T17:56:27;23.8;72.5
45383;DHT22;42455;51.660;5.824;2023-07-13T18:01:34;23.6;73.0
45383;DHT22;42455;51.660;5.824;2023-07-13T18:06:40;23.4;74.0
45383;DHT22;42455;51.660;5.824;2023-07-13T18:11:45;23.1;75.0
45383;DHT22;42455;51.660;5.824;2023-07-13T18:16:58;22.9;76.0
45383;DHT22;42455;51.660;5.824;2023-07-13T18:21:58;22.8;77.0
45383;DHT22;42455;51.660;5.824;2023-07-13T18:27:04;22.6;77.5
45383;DHT22;42455;51.660;5.824;2023-07-13T18:32:15;22.6;78.5
45383;DHT22;42455;51.660;5.824;2023-07-13T18:37:20;22.5;79.0
45383;DHT22;42455;51.660;5.824;2023-07-13T18:42:23;22.4;79.5
45383;DHT22;42455;51.660;5.824;2023-07-13T18:47:29;22.4;79.5
45383;DHT22;42455;51.660;5.824;2023-07-13T18:52:35;22.3;79.5
45383;DHT22;42455;51.660;5.824;2023-07-13T18:57:41;22.3;80.0
45383;DHT22;42455;51.660;5.824;2023-07-13T19:02:48;22.2;80.5
45383;DHT22;42455;51.660;5.824;2023-07-13T19:07:54;22.2;80.5
45383;DHT22;42455;51.660;5.824;2023-07-13T19:13:00;22.1;80.5
45383;DHT22;42455;51.660;5.824;2023-07-13T19:18:13;22.1;80.5
45383;DHT22;42455;51.660;5.824;2023-07-13T19:23:20;22.0;80.5
45383;DHT22;42455;51.660;5.824;2023-07-13T19:28:30;22.0;80.5
45383;DHT22;42455;51.660;5.824;2023-07-13T19:33:25;21.9;80.5
45383;DHT22;42455;51.660;5.824;2023-07-13T19:38:31;21.8;81.0
45383;DHT22;42455;51.660;5.824;2023-07-13T19:48:43;21.7;81.5
45383;DHT22;42455;51.660;5.824;2023-07-13T19:53:51;21.6;81.5
45383;DHT22;42455;51.660;5.824;2023-07-13T19:58:57;21.5;82.0
45383;DHT22;42455;51.660;5.824;2023-07-13T20:04:02;21.5;82.5
45383;DHT22;42455;51.660;5.824;2023-07-13T20:09:16;21.4;82.5
45383;DHT22;42455;51.660;5.824;2023-07-13T20:14:16;21.3;82.0
45383;DHT22;42455;51.660;5.824;2023-07-13T20:19:20;21.2;82.0
45383;DHT22;42455;51.660;5.824;2023-07-13T20:24:27;21.1;82.5
45383;DHT22;42455;51.660;5.824;2023-07-13T20:29:33;21.0;83.0
45383;DHT22;42455;51.660;5.824;2023-07-13T20:34:39;20.9;83.0
45383;DHT22;42455;51.660;5.824;2023-07-13T20:39:45;20.8;83.0
45383;DHT22;42455;51.660;5.824;2023-07-13T20:44:51;20.7;83.5
45383;DHT22;42455;51.660;5.824;2023-07-13T20:49:58;20.7;83.5
45383;DHT22;42455;51.660;5.824;2023-07-13T20:55:12;20.6;83.5
45383;DHT22;42455;51.660;5.824;2023-07-13T21:00:13;20.5;84.0
45383;DHT22;42455;51.660;5.824;2023-07-13T21:05:18;20.5;84.0
45383;DHT22;42455;51.660;5.824;2023-07-13T21:10:25;20.4;84.0
45383;DHT22;42455;51.660;5.824;2023-07-13T21:20:37;20.3;84.5
45383;DHT22;42455;51.660;5.824;2023-07-13T21:25:41;20.2;84.5
45383;DHT22;42455;51.660;5.824;2023-07-13T21:30:47;20.1;84.5
45383;DHT22;42455;51.660;5.824;2023-07-13T21:35:54;20.0;84.5
45383;DHT22;42455;51.660;5.824;2023-07-13T21:41:01;19.9;84.5
45383;DHT22;42455;51.660;5.824;2023-07-13T21:46:08;19.8;85.0
45383;DHT22;42455;51.660;5.824;2023-07-13T21:51:17;19.7;85.5
45383;DHT22;42455;51.660;5.824;2023-07-13T21:56:19;19.7;85.5
45383;DHT22;42455;51.660;5.824;2023-07-13T22:01:31;19.6;86.0
45383;DHT22;42455;51.660;5.824;2023-07-13T22:06:30;19.6;86.0
45383;DHT22;42455;51.660;5.824;2023-07-13T22:11:36;19.6;86.0
45383;DHT22;42455;51.660;5.824;2023-07-13T22:16:42;19.6;86.0
45383;DHT22;42455;51.660;5.824;2023-07-13T22:21:48;19.6;86.5
45383;DHT22;42455;51.660;5.824;2023-07-13T22:26:55;19.6;87.0
45383;DHT22;42455;51.660;5.824;2023-07-13T22:32:01;19.6;87.0
45383;DHT22;42455;51.660;5.824;2023-07-13T22:42:12;19.5;88.0
45383;DHT22;42455;51.660;5.824;2023-07-13T22:47:19;19.4;88.5
45383;DHT22;42455;51.660;5.824;2023-07-13T22:52:24;19.4;89.0
45383;DHT22;42455;51.660;5.824;2023-07-13T22:57:30;19.4;89.5
45383;DHT22;42455;51.660;5.824;2023-07-13T23:02:36;19.4;89.5
45383;DHT22;42455;51.660;5.824;2023-07-13T23:07:42;19.4;89.5
45383;DHT22;42455;51.660;5.824;2023-07-13T23:12:48;19.4;90.0
45383;DHT22;42455;51.660;5.824;2023-07-13T23:17:55;19.3;90.0
45383;DHT22;42455;51.660;5.824;2023-07-13T23:23:02;19.3;90.0
45383;DHT22;42455;51.660;5.824;2023-07-13T23:28:08;19.3;90.0
45383;DHT22;42455;51.660;5.824;2023-07-13T23:33:20;19.3;90.5
45383;DHT22;42455;51.660;5.824;2023-07-13T23:38:20;19.2;90.5
45383;DHT22;42455;51.660;5.824;2023-07-13T23:43:26;19.2;90.5
45383;DHT22;42455;51.660;5.824;2023-07-13T23:48:32;19.2;91.0
45383;DHT22;42455;51.660;5.824;2023-07-13T23:53:38;19.2;91.0
45383;DHT22;42455;51.660;5.824;2023-07-13T23:58:45;19.1;91.0
